Time;durP1;ratioP1;P1;durP2;ratioP2;P2;SDS_P1;SDS_P2;PMS_P1;PMS_P2;Temp;Humidity;BMP_temperature;BMP_pressure;BME280_temperature;BME280_humidity;BME280_pressure;Samples;Min_cycle;Max_cycle;Signal;HPM_P1;HPM_P2
2022/01/09 00:01:40;;;;;;;0.50;0.50;;;6.60;99.90;;;;;;5034088;28;20185;-69
2022/01/09 00:04:08;;;;;;;0.50;0.50;;;6.60;99.90;;;;;;5034120;28;20196;-68
2022/01/09 00:06:33;;;;;;;0.90;0.50;;;6.60;99.90;;;;;;5034137;28;20177;-65
2022/01/09 00:08:59;;;;;;;0.70;0.50;;;6.70;99.90;;;;;;5035984;28;20184;-68
2022/01/09 00:11:26;;;;;;;0.90;0.57;;;6.70;99.90;;;;;;5037332;28;20180;-68
2022/01/09 00:13:55;;;;;;;0.50;0.50;;;6.60;99.90;;;;;;5038448;28;20298;-68
2022/01/09 00:16:24;;;;;;;0.40;0.40;;;6.70;99.90;;;;;;5052434;28;20181;-69
2022/01/09 00:18:51;;;;;;;0.50;0.40;;;6.70;99.90;;;;;;5038714;28;20292;-68
2022/01/09 00:21:17;;;;;;;0.67;0.50;;;6.70;99.90;;;;;;5036746;28;20189;-68
2022/01/09 00:23:46;;;;;;;0.50;0.40;;;6.60;99.90;;;;;;5038053;28;20272;-65
2022/01/09 00:26:14;;;;;;;0.60;0.50;;;6.70;99.90;;;;;;5038222;28;20215;-68
2022/01/09 00:28:40;;;;;;;0.40;0.40;;;6.70;99.90;;;;;;5042900;28;20192;-67
2022/01/09 00:31:06;;;;;;;0.37;0.37;;;6.60;99.90;;;;;;5040464;28;20185;-66
2022/01/09 00:33:35;;;;;;;0.50;0.40;;;6.60;99.90;;;;;;5039982;28;20200;-69
2022/01/09 00:36:02;;;;;;;0.73;0.50;;;6.60;99.90;;;;;;5038643;28;20192;-69
2022/01/09 00:38:28;;;;;;;0.73;0.50;;;6.60;99.90;;;;;;5038354;28;20226;-69
2022/01/09 00:40:56;;;;;;;0.60;0.50;;;6.60;99.90;;;;;;5039519;28;20192;-68
2022/01/09 00:43:21;;;;;;;0.67;0.40;;;6.60;99.90;;;;;;5042521;28;20204;-69
2022/01/09 00:45:47;;;;;;;0.33;0.33;;;6.60;99.90;;;;;;5055797;28;20421;-69
2022/01/09 00:48:15;;;;;;;0.40;0.40;;;6.60;99.90;;;;;;5042028;28;20173;-68
2022/01/09 00:50:43;;;;;;;0.40;0.30;;;6.60;99.90;;;;;;5036217;28;20295;-67
2022/01/09 00:53:12;;;;;;;0.40;0.30;;;6.60;99.90;;;;;;5042200;28;20177;-67
2022/01/09 00:55:40;;;;;;;0.30;0.30;;;6.60;99.90;;;;;;5040892;28;20288;-67
2022/01/09 00:58:06;;;;;;;0.40;0.20;;;6.60;99.90;;;;;;5038359;28;20440;-67
2022/01/09 01:00:35;;;;;;;0.50;0.30;;;6.60;99.90;;;;;;5044201;28;20201;-67
2022/01/09 01:03:03;;;;;;;0.20;0.20;;;6.70;99.90;;;;;;5036814;28;20201;-68
2022/01/09 01:05:29;;;;;;;1.30;0.50;;;6.70;99.90;;;;;;5041609;28;20185;-67
2022/01/09 01:07:55;;;;;;;0.30;0.30;;;6.70;99.90;;;;;;5037978;28;20208;-68
2022/01/09 01:10:20;;;;;;;1.00;0.40;;;6.70;99.90;;;;;;5045510;28;20176;-67
2022/01/09 01:12:51;;;;;;;0.37;0.30;;;6.70;99.90;;;;;;5038568;28;20185;-67
2022/01/09 01:15:16;;;;;;;0.30;0.23;;;6.70;99.90;;;;;;5047644;28;20209;-66
2022/01/09 01:17:45;;;;;;;0.20;0.20;;;6.70;99.90;;;;;;5039448;28;20259;-68
2022/01/09 01:20:13;;;;;;;0.70;0.30;;;6.80;99.90;;;;;;5034750;28;20478;-68
2022/01/09 01:22:40;;;;;;;0.20;0.20;;;6.80;99.90;;;;;;5050420;28;20324;-66
2022/01/09 01:25:10;;;;;;;0.10;0.10;;;6.80;99.90;;;;;;5050970;28;20188;-68
2022/01/09 01:27:38;;;;;;;0.40;0.30;;;6.80;99.90;;;;;;5036544;28;20213;-68
2022/01/09 01:30:08;;;;;;;0.10;0.10;;;6.80;99.90;;;;;;5037470;28;20189;-68
2022/01/09 01:32:33;;;;;;;0.10;0.10;;;6.80;99.90;;;;;;5038641;28;20190;-68
2022/01/09 01:35:04;;;;;;;0.23;0.10;;;6.90;99.90;;;;;;5038082;28;20181;-66
2022/01/09 01:37:32;;;;;;;0.13;0.10;;;6.90;99.90;;;;;;5042138;28;20196;-67
2022/01/09 01:39:58;;;;;;;0.30;0.10;;;6.90;99.90;;;;;;5039926;28;20265;-68
2022/01/09 01:42:23;;;;;;;0.10;0.10;;;6.90;99.90;;;;;;5041480;28;20263;-68
2022/01/09 01:44:50;;;;;;;0.33;0.20;;;6.90;99.90;;;;;;5039881;28;20177;-68
2022/01/09 01:47:19;;;;;;;0.40;0.27;;;6.90;99.90;;;;;;5035522;28;20184;-67
2022/01/09 01:49:45;;;;;;;0.30;0.20;;;6.90;99.90;;;;;;5036105;28;20181;-66
2022/01/09 01:52:13;;;;;;;0.20;0.10;;;6.90;99.90;;;;;;5037011;28;20270;-68
2022/01/09 01:54:43;;;;;;;0.10;0.00;;;6.80;99.90;;;;;;5052815;28;20185;-68
2022/01/09 01:57:09;;;;;;;0.33;0.20;;;6.80;99.90;;;;;;5039001;28;20177;-68
2022/01/09 01:59:37;;;;;;;0.30;0.30;;;6.80;99.90;;;;;;5035175;28;20184;-67
2022/01/09 02:02:03;;;;;;;0.97;0.53;;;6.80;99.90;;;;;;5039695;28;20223;-67
2022/01/09 02:04:29;;;;;;;0.70;0.57;;;6.80;99.90;;;;;;5037608;28;20212;-68
2022/01/09 02:06:57;;;;;;;1.07;0.77;;;6.80;99.90;;;;;;5037718;28;20173;-68
2022/01/09 02:09:24;;;;;;;0.40;0.40;;;6.80;99.90;;;;;;5036570;28;20185;-67
2022/01/09 02:11:52;;;;;;;0.33;0.20;;;6.80;99.90;;;;;;5041147;28;20185;-67
2022/01/09 02:14:17;;;;;;;0.37;0.20;;;6.80;99.90;;;;;;5036117;28;20224;-68
2022/01/09 02:16:44;;;;;;;0.10;0.10;;;6.80;99.90;;;;;;5037158;28;20229;-68
2022/01/09 02:19:14;;;;;;;0.30;0.20;;;6.70;99.90;;;;;;5042237;28;20201;-68
2022/01/09 02:21:42;;;;;;;0.30;0.23;;;6.70;99.90;;;;;;5052202;28;20178;-65
2022/01/09 02:24:11;;;;;;;0.73;0.30;;;6.70;99.90;;;;;;5034423;28;20181;-68
2022/01/09 02:26:38;;;;;;;0.80;0.50;;;6.60;99.90;;;;;;5039897;28;20280;-68
2022/01/09 02:29:07;;;;;;;0.80;0.50;;;6.60;99.90;;;;;;5039836;28;20469;-65
2022/01/09 02:31:35;;;;;;;0.67;0.37;;;6.50;99.90;;;;;;5052670;28;20185;-68
2022/01/09 02:34:01;;;;;;;1.13;0.30;;;6.40;99.90;;;;;;5037086;28;20270;-68
2022/01/09 02:36:31;;;;;;;0.77;0.23;;;6.30;99.90;;;;;;5037391;28;20189;-68
2022/01/09 02:38:59;;;;;;;0.23;0.20;;;6.20;99.90;;;;;;5037387;28;20315;-68
2022/01/09 02:41:25;;;;;;;0.47;0.30;;;6.10;99.90;;;;;;5039159;28;20211;-69
2022/01/09 02:43:51;;;;;;;0.47;0.30;;;6.00;99.90;;;;;;5049693;28;20181;-67
2022/01/09 02:48:50;;;;;;;0.70;0.37;;;5.90;99.90;;;;;;5050100;28;20170;-68
2022/01/09 02:51:17;;;;;;;0.70;0.30;;;5.80;99.90;;;;;;5036127;28;20184;-68
2022/01/09 02:53:49;;;;;;;0.57;0.23;;;5.80;99.90;;;;;;5036395;28;20351;-69
2022/01/09 02:56:17;;;;;;;1.50;0.40;;;5.80;99.90;;;;;;5035078;28;20182;-69
2022/01/09 02:58:45;;;;;;;0.53;0.33;;;5.80;99.90;;;;;;5037016;28;20271;-68
2022/01/09 03:01:14;;;;;;;1.67;0.60;;;5.80;99.90;;;;;;5034833;28;20192;-69
2022/01/09 03:03:44;;;;;;;0.90;0.50;;;5.80;99.90;;;;;;5035277;28;20173;-68
2022/01/09 03:06:12;;;;;;;1.63;0.50;;;5.80;99.90;;;;;;5039253;28;20182;-68
2022/01/09 03:08:38;;;;;;;2.13;0.50;;;5.80;99.90;;;;;;5033975;28;20174;-69
2022/01/09 03:11:06;;;;;;;1.00;0.47;;;5.80;99.90;;;;;;5044137;28;20193;-68
2022/01/09 03:13:32;;;;;;;2.87;0.83;;;5.80;99.90;;;;;;5036481;28;20181;-67
2022/01/09 03:16:01;;;;;;;1.60;0.83;;;5.80;99.90;;;;;;5034955;28;20197;-67
2022/01/09 03:18:27;;;;;;;2.77;0.87;;;5.80;99.90;;;;;;5036183;28;20323;-68
2022/01/09 03:20:55;;;;;;;3.00;1.10;;;5.80;99.90;;;;;;5035855;28;20200;-67
2022/01/09 03:23:21;;;;;;;2.03;0.67;;;5.80;99.90;;;;;;5038773;28;20219;-67
2022/01/09 03:25:48;;;;;;;1.37;0.80;;;5.80;99.90;;;;;;5049223;28;20216;-69
2022/01/09 03:28:14;;;;;;;1.67;0.67;;;5.80;99.90;;;;;;5034288;28;20204;-67
2022/01/09 03:30:40;;;;;;;3.03;1.10;;;5.80;99.90;;;;;;5040944;28;20189;-67
2022/01/09 03:33:08;;;;;;;1.77;0.83;;;5.80;99.90;;;;;;5039005;28;20187;-69
2022/01/09 03:35:33;;;;;;;1.70;0.70;;;5.80;99.90;;;;;;5033947;28;20181;-70
2022/01/09 03:37:59;;;;;;;1.37;0.73;;;5.80;99.90;;;;;;5036591;28;20197;-67
2022/01/09 03:40:30;;;;;;;3.33;0.90;;;5.80;99.90;;;;;;5037906;28;20176;-69
2022/01/09 03:42:58;;;;;;;2.47;0.90;;;5.80;99.90;;;;;;5035706;28;20201;-69
2022/01/09 03:45:25;;;;;;;3.67;1.10;;;5.80;99.90;;;;;;5035307;28;20173;-70
2022/01/09 03:47:52;;;;;;;4.70;1.20;;;5.80;99.90;;;;;;5039461;28;20177;-70
2022/01/09 03:50:18;;;;;;;2.83;1.20;;;5.80;99.90;;;;;;5042837;28;20188;-69
2022/01/09 03:52:49;;;;;;;3.93;1.10;;;5.80;99.90;;;;;;5038139;28;20188;-66
2022/01/09 03:55:17;;;;;;;5.10;1.57;;;5.80;99.90;;;;;;5034288;28;20192;-68
2022/01/09 03:57:43;;;;;;;6.10;1.40;;;5.90;99.90;;;;;;5036813;28;20347;-70
2022/01/09 04:00:14;;;;;;;3.70;1.30;;;5.90;99.90;;;;;;5049924;28;20245;-70
2022/01/09 04:02:43;;;;;;;3.13;1.10;;;5.90;99.90;;;;;;5037453;28;20192;-70
2022/01/09 04:05:11;;;;;;;2.97;1.40;;;5.90;99.90;;;;;;5034742;28;20208;-70
2022/01/09 04:07:39;;;;;;;3.77;1.47;;;5.90;99.90;;;;;;5037638;28;20280;-72
2022/01/09 04:10:07;;;;;;;3.87;1.20;;;5.90;99.90;;;;;;5036926;28;20177;-72
2022/01/09 04:12:47;;;;;;;5.10;1.23;;;5.90;99.90;;;;;;5035005;28;20388;-72
2022/01/09 04:15:14;;;;;;;5.50;1.60;;;5.90;99.90;;;;;;5035818;28;20235;-67
2022/01/09 04:17:58;;;;;;;4.20;1.60;;;5.90;99.90;;;;;;5034321;28;20207;-71
2022/01/09 04:20:28;;;;;;;4.63;1.47;;;5.90;99.90;;;;;;5035113;28;20272;-71
2022/01/09 04:22:55;;;;;;;7.10;1.60;;;6.00;99.90;;;;;;5021133;28;20201;-69
2022/01/09 04:25:23;;;;;;;4.43;1.30;;;6.00;99.90;;;;;;5047834;28;20255;-70
2022/01/09 04:27:50;;;;;;;4.40;1.60;;;6.00;99.90;;;;;;5051272;28;20188;-72
2022/01/09 04:30:17;;;;;;;4.73;1.60;;;6.00;99.90;;;;;;5049256;28;20215;-72
2022/01/09 04:32:48;;;;;;;5.47;1.50;;;6.10;99.90;;;;;;5048118;28;20186;-73
2022/01/09 04:35:16;;;;;;;6.03;2.10;;;6.10;99.90;;;;;;5035782;28;20177;-75
2022/01/09 04:37:46;;;;;;;7.77;2.00;;;6.10;99.90;;;;;;5043114;28;20267;-76
2022/01/09 04:40:14;;;;;;;7.43;2.23;;;6.10;99.90;;;;;;5038114;28;20178;-71
2022/01/09 04:42:46;;;;;;;11.50;2.53;;;6.20;99.90;;;;;;5035502;28;20252;-73
2022/01/09 04:45:14;;;;;;;11.87;2.90;;;6.20;99.90;;;;;;5029456;28;20212;-74
2022/01/09 04:47:47;;;;;;;11.93;2.57;;;6.20;99.90;;;;;;5034879;28;20189;-71
2022/01/09 04:50:20;;;;;;;12.83;3.07;;;6.30;99.90;;;;;;5034439;28;20181;-76
2022/01/09 04:52:51;;;;;;;14.23;3.20;;;6.30;99.90;;;;;;5033207;28;20178;-75
2022/01/09 04:55:19;;;;;;;15.67;3.73;;;6.30;99.90;;;;;;5029699;28;20212;-72
2022/01/09 04:57:47;;;;;;;9.97;2.70;;;6.40;99.90;;;;;;5035354;28;20270;-72
2022/01/09 05:00:18;;;;;;;11.87;2.80;;;6.40;99.90;;;;;;5044466;28;20476;-73
2022/01/09 05:02:46;;;;;;;14.67;3.13;;;6.40;99.90;;;;;;5040680;28;20200;-70
2022/01/09 05:05:14;;;;;;;10.93;3.00;;;6.50;99.90;;;;;;5038023;28;20169;-73
2022/01/09 05:07:40;;;;;;;10.30;2.80;;;6.50;99.90;;;;;;5036599;28;20197;-73
2022/01/09 05:10:10;;;;;;;13.23;3.13;;;6.50;99.90;;;;;;5041076;28;20193;-71
2022/01/09 05:12:36;;;;;;;11.83;2.53;;;6.50;99.90;;;;;;5042288;28;20200;-72
2022/01/09 05:15:06;;;;;;;9.10;2.47;;;6.50;99.90;;;;;;5038264;28;20232;-70
2022/01/09 05:17:32;;;;;;;9.17;2.33;;;6.60;99.90;;;;;;5036794;28;20209;-73
2022/01/09 05:20:00;;;;;;;8.17;2.13;;;6.60;99.90;;;;;;5041332;28;20193;-73
2022/01/09 05:22:29;;;;;;;9.47;2.73;;;6.60;99.90;;;;;;5038849;28;20200;-71
2022/01/09 05:24:58;;;;;;;8.13;2.33;;;6.60;99.90;;;;;;5049748;28;20173;-73
2022/01/09 05:27:27;;;;;;;10.60;2.63;;;6.70;99.90;;;;;;5037172;28;20264;-72
2022/01/09 05:29:55;;;;;;;9.77;2.80;;;6.70;99.90;;;;;;5039551;28;20178;-72
2022/01/09 05:32:22;;;;;;;6.77;2.20;;;6.70;99.90;;;;;;5039648;28;20220;-73
2022/01/09 05:34:48;;;;;;;12.17;2.63;;;6.80;99.90;;;;;;5043974;28;20355;-71
2022/01/09 05:37:14;;;;;;;12.20;2.67;;;6.80;99.90;;;;;;5040835;28;20174;-72
2022/01/09 05:39:39;;;;;;;7.50;1.93;;;6.80;99.90;;;;;;5037611;28;20188;-71
2022/01/09 05:42:10;;;;;;;7.47;2.13;;;6.80;99.90;;;;;;5036315;28;20204;-72
2022/01/09 05:44:37;;;;;;;12.00;3.17;;;6.90;99.90;;;;;;5049977;28;20205;-72
2022/01/09 05:47:04;;;;;;;8.03;3.27;;;6.90;99.90;;;;;;5039045;28;20177;-72
2022/01/09 05:49:32;;;;;;;9.87;2.33;;;6.90;99.90;;;;;;5039609;28;20177;-72
2022/01/09 05:51:58;;;;;;;9.87;2.57;;;7.00;99.90;;;;;;5040852;28;20196;-72
2022/01/09 05:54:29;;;;;;;8.13;2.30;;;7.00;99.90;;;;;;5043603;28;20253;-72
2022/01/09 05:56:54;;;;;;;7.27;2.20;;;7.00;99.90;;;;;;5037416;28;20201;-72
2022/01/09 05:59:27;;;;;;;11.67;2.20;;;7.00;99.90;;;;;;5039380;28;20198;-72
2022/01/09 06:01:52;;;;;;;12.10;2.70;;;7.10;99.90;;;;;;5039643;28;20174;-71
2022/01/09 06:04:20;;;;;;;7.40;1.83;;;7.10;99.90;;;;;;5036303;28;20184;-72
2022/01/09 06:06:46;;;;;;;9.77;2.57;;;7.10;99.90;;;;;;5038980;28;20195;-71
2022/01/09 06:09:12;;;;;;;6.53;2.27;;;7.10;99.90;;;;;;5036949;28;20177;-71
2022/01/09 06:11:37;;;;;;;7.27;1.97;;;7.10;99.90;;;;;;5036816;28;20197;-71
2022/01/09 06:14:08;;;;;;;6.77;2.20;;;7.20;99.90;;;;;;5048350;28;20297;-71
2022/01/09 06:16:35;;;;;;;10.87;2.77;;;7.20;99.90;;;;;;5039166;28;20253;-71
2022/01/09 06:19:01;;;;;;;5.83;2.37;;;7.20;99.90;;;;;;5038154;28;20189;-71
2022/01/09 06:21:31;;;;;;;7.23;2.03;;;7.20;99.90;;;;;;5036779;28;20201;-71
2022/01/09 06:23:57;;;;;;;7.70;2.50;;;7.10;99.90;;;;;;5037932;28;20226;-70
2022/01/09 06:26:23;;;;;;;8.17;2.33;;;7.20;99.90;;;;;;5037421;28;20181;-69
2022/01/09 06:28:51;;;;;;;7.57;2.40;;;7.20;99.90;;;;;;5038115;28;20212;-70
2022/01/09 06:31:19;;;;;;;7.17;1.90;;;7.20;99.90;;;;;;5036699;28;20193;-70
2022/01/09 06:33:44;;;;;;;9.33;1.90;;;7.20;99.90;;;;;;5038936;28;20363;-70
2022/01/09 06:36:10;;;;;;;4.20;1.70;;;7.10;99.90;;;;;;5038203;28;20224;-70
2022/01/09 06:38:37;;;;;;;10.17;1.90;;;7.20;99.90;;;;;;5057567;28;20192;-69
2022/01/09 06:41:06;;;;;;;9.93;2.13;;;7.20;99.90;;;;;;5031608;28;20263;-70
2022/01/09 06:43:32;;;;;;;5.27;1.80;;;7.10;99.90;;;;;;5053063;28;20189;-70
2022/01/09 06:45:57;;;;;;;9.03;2.20;;;7.10;99.90;;;;;;5033446;28;20304;-70
2022/01/09 06:48:27;;;;;;;8.60;1.97;;;7.10;99.90;;;;;;5036739;28;20182;-70
2022/01/09 06:50:53;;;;;;;4.13;2.00;;;7.10;99.90;;;;;;5035503;28;20177;-72
2022/01/09 06:53:21;;;;;;;6.93;2.07;;;7.10;99.90;;;;;;5037325;28;20185;-71
2022/01/09 06:55:49;;;;;;;5.13;2.27;;;7.20;99.90;;;;;;5039891;28;20181;-70
2022/01/09 06:58:21;;;;;;;6.03;2.20;;;7.20;99.90;;;;;;5040935;28;20250;-70
2022/01/09 07:00:49;;;;;;;9.00;2.40;;;7.20;99.90;;;;;;5036547;28;20173;-70
2022/01/09 07:03:17;;;;;;;6.40;2.10;;;7.20;99.90;;;;;;5037235;28;20192;-71
2022/01/09 07:05:42;;;;;;;8.20;2.10;;;7.20;99.90;;;;;;5038051;28;20216;-70
2022/01/09 07:08:08;;;;;;;4.50;1.70;;;7.10;99.90;;;;;;5043891;28;20248;-70
2022/01/09 07:10:36;;;;;;;8.70;2.40;;;7.20;99.90;;;;;;5035267;28;20204;-70
2022/01/09 07:13:02;;;;;;;5.47;1.87;;;7.20;99.90;;;;;;5037374;28;20197;-69
2022/01/09 07:15:33;;;;;;;11.73;2.97;;;7.10;99.90;;;;;;5035502;28;20181;-68
2022/01/09 07:17:58;;;;;;;4.33;1.80;;;7.20;99.90;;;;;;5031396;28;20216;-70
2022/01/09 07:20:24;;;;;;;5.10;1.93;;;7.20;99.90;;;;;;5037047;28;20173;-70
2022/01/09 07:22:49;;;;;;;6.63;1.70;;;7.20;99.90;;;;;;5034176;28;20261;-70
2022/01/09 07:25:18;;;;;;;5.53;1.83;;;7.10;99.90;;;;;;5052566;28;20185;-70
2022/01/09 07:27:43;;;;;;;7.70;1.93;;;7.10;99.90;;;;;;5034656;28;20190;-69
2022/01/09 07:30:12;;;;;;;4.10;2.00;;;7.10;99.90;;;;;;5035026;28;20534;-70
2022/01/09 07:32:40;;;;;;;5.50;1.80;;;7.10;99.90;;;;;;5035640;28;20184;-70
2022/01/09 07:35:06;;;;;;;5.47;2.10;;;7.00;99.90;;;;;;5034119;28;20212;-69
2022/01/09 07:37:32;;;;;;;5.47;1.90;;;7.00;99.90;;;;;;5044422;28;20296;-69
2022/01/09 07:40:02;;;;;;;4.97;1.80;;;7.00;99.90;;;;;;5040046;28;20289;-69
2022/01/09 07:42:28;;;;;;;6.13;1.80;;;7.00;99.90;;;;;;5040757;28;20173;-70
2022/01/09 07:44:53;;;;;;;4.83;1.80;;;6.90;99.90;;;;;;5035764;28;20354;-69
2022/01/09 07:47:21;;;;;;;4.83;1.70;;;6.90;99.90;;;;;;5034914;28;20497;-70
2022/01/09 07:49:47;;;;;;;6.23;1.93;;;6.90;99.90;;;;;;5028086;28;20197;-70
2022/01/09 07:52:15;;;;;;;4.37;1.77;;;6.80;99.90;;;;;;5040800;28;20381;-68
2022/01/09 07:54:43;;;;;;;4.90;1.83;;;6.80;99.90;;;;;;5034800;28;20216;-69
2022/01/09 07:57:08;;;;;;;2.87;1.60;;;6.80;99.90;;;;;;5041587;28;20177;-69
2022/01/09 07:59:34;;;;;;;6.13;1.87;;;6.80;99.90;;;;;;5037522;28;20192;-69
2022/01/09 08:01:59;;;;;;;4.30;1.90;;;6.80;99.90;;;;;;5036617;28;20212;-69
2022/01/09 08:04:25;;;;;;;5.37;1.60;;;6.80;99.90;;;;;;5033819;28;20182;-69
2022/01/09 08:06:55;;;;;;;4.47;1.73;;;6.70;99.90;;;;;;5039712;28;20205;-68
2022/01/09 08:09:21;;;;;;;3.40;1.50;;;6.70;99.90;;;;;;5032963;28;20272;-69
2022/01/09 08:11:51;;;;;;;3.83;1.60;;;6.70;99.90;;;;;;5034764;28;20283;-69
2022/01/09 08:14:17;;;;;;;4.80;1.60;;;6.70;99.90;;;;;;5061635;28;20215;-69
2022/01/09 08:16:43;;;;;;;7.47;1.87;;;6.70;99.90;;;;;;5040076;28;20462;-69
2022/01/09 08:19:11;;;;;;;5.33;1.70;;;6.80;99.90;;;;;;5042780;28;20342;-69
2022/01/09 08:21:36;;;;;;;5.37;1.80;;;6.80;99.90;;;;;;5033728;28;20169;-69
2022/01/09 08:24:05;;;;;;;7.33;1.77;;;6.80;99.90;;;;;;5036437;28;20327;-69
2022/01/09 08:26:31;;;;;;;5.33;1.83;;;6.80;99.90;;;;;;5039344;28;20166;-68
2022/01/09 08:28:56;;;;;;;3.73;1.50;;;6.90;99.90;;;;;;5033952;28;20167;-69
2022/01/09 08:31:22;;;;;;;5.27;1.50;;;6.90;99.90;;;;;;5039016;28;20196;-69
2022/01/09 08:33:50;;;;;;;4.60;1.60;;;6.90;99.90;;;;;;5032636;28;20182;-69
2022/01/09 08:36:18;;;;;;;6.43;2.00;;;6.90;99.90;;;;;;5039147;28;20220;-68
2022/01/09 08:38:48;;;;;;;7.20;1.80;;;6.90;99.90;;;;;;5040990;28;20200;-68
2022/01/09 08:41:13;;;;;;;7.47;2.13;;;6.90;99.90;;;;;;5041574;28;20192;-69
2022/01/09 08:43:41;;;;;;;3.70;1.70;;;7.00;99.90;;;;;;5038721;28;20177;-69
2022/01/09 08:46:12;;;;;;;6.30;1.90;;;7.00;99.90;;;;;;5039189;28;20247;-69
2022/01/09 08:48:40;;;;;;;4.13;1.80;;;7.00;99.90;;;;;;5039055;28;20201;-69
2022/01/09 08:51:08;;;;;;;5.43;1.93;;;7.10;99.90;;;;;;5042086;28;20185;-69
2022/01/09 08:53:35;;;;;;;4.90;2.20;;;7.10;99.90;;;;;;5039279;28;20264;-69
2022/01/09 08:56:05;;;;;;;3.87;1.37;;;7.10;99.90;;;;;;5039476;28;20508;-69
2022/01/09 08:58:34;;;;;;;4.10;1.87;;;7.20;99.90;;;;;;5038013;28;20197;-69
2022/01/09 09:01:02;;;;;;;7.17;1.77;;;7.20;99.90;;;;;;5055013;28;20221;-69
2022/01/09 09:03:30;;;;;;;5.63;1.83;;;7.20;99.90;;;;;;5047443;28;20176;-69
2022/01/09 09:05:56;;;;;;;4.87;1.60;;;7.20;99.90;;;;;;5038843;28;20354;-69
2022/01/09 09:08:26;;;;;;;5.23;1.60;;;7.20;99.90;;;;;;5038382;28;20192;-69
2022/01/09 09:10:52;;;;;;;6.27;2.00;;;7.30;99.90;;;;;;5038346;28;21122;-69
2022/01/09 09:13:19;;;;;;;5.93;1.70;;;7.30;99.90;;;;;;5037523;28;20203;-69
2022/01/09 09:15:45;;;;;;;4.03;1.87;;;7.30;99.90;;;;;;5038327;28;20239;-69
2022/01/09 09:18:13;;;;;;;6.73;1.83;;;7.30;99.90;;;;;;5038220;28;20260;-69
2022/01/09 09:20:39;;;;;;;6.20;1.80;;;7.30;99.90;;;;;;5037829;28;20177;-69
2022/01/09 09:23:08;;;;;;;4.07;1.70;;;7.30;99.90;;;;;;5038130;28;20208;-69
2022/01/09 09:25:33;;;;;;;6.37;1.77;;;7.40;99.90;;;;;;5034105;28;20188;-69
2022/01/09 09:28:01;;;;;;;3.57;1.53;;;7.40;99.90;;;;;;5037709;28;20189;-69
2022/01/09 09:30:27;;;;;;;6.37;1.67;;;7.40;99.90;;;;;;5037712;28;20181;-69
2022/01/09 09:32:55;;;;;;;4.13;1.60;;;7.40;99.90;;;;;;5049702;28;20272;-69
2022/01/09 09:35:21;;;;;;;3.33;1.40;;;7.50;99.90;;;;;;5044385;28;20203;-70
2022/01/09 09:37:49;;;;;;;4.60;1.73;;;7.40;99.90;;;;;;5038334;28;20205;-70
2022/01/09 09:40:17;;;;;;;5.37;1.77;;;7.50;99.90;;;;;;5041532;28;20185;-69
2022/01/09 09:42:43;;;;;;;4.97;1.53;;;7.50;99.90;;;;;;5041478;28;20177;-69
2022/01/09 09:45:10;;;;;;;5.37;1.80;;;7.50;99.90;;;;;;5038120;28;20215;-70
2022/01/09 09:47:38;;;;;;;4.47;1.50;;;7.50;99.90;;;;;;5039444;28;20193;-70
2022/01/09 09:50:07;;;;;;;5.37;1.63;;;7.50;99.90;;;;;;5046447;28;20192;-69
2022/01/09 09:52:36;;;;;;;4.40;1.63;;;7.50;99.90;;;;;;5036498;28;20506;-69
2022/01/09 09:55:03;;;;;;;4.23;1.63;;;7.50;99.90;;;;;;5038501;28;20384;-70
2022/01/09 09:57:31;;;;;;;6.97;2.27;;;7.50;99.90;;;;;;5065825;28;20254;-70
2022/01/09 10:00:09;;;;;;;6.23;1.90;;;7.50;99.90;;;;;;5037348;28;20193;-70
2022/01/09 10:02:50;;;;;;;4.80;1.67;;;7.50;99.90;;;;;;5052738;28;20257;-70
2022/01/09 10:05:43;;;;;;;5.50;1.87;;;7.50;99.90;;;;;;5037475;28;20196;-70
2022/01/09 10:08:15;;;;;;;3.97;1.73;;;7.50;99.90;;;;;;5040791;28;20188;-70
2022/01/09 10:10:40;;;;;;;6.37;2.00;;;7.50;99.90;;;;;;5038549;28;20204;-70
2022/01/09 10:13:26;;;;;;;4.57;1.40;;;7.50;99.90;;;;;;5038247;28;20205;-70
2022/01/09 10:15:59;;;;;;;5.47;1.90;;;7.60;99.90;;;;;;5037617;28;20188;-71
2022/01/09 10:18:41;;;;;;;5.93;1.53;;;7.60;99.90;;;;;;5039254;28;20312;-70
2022/01/09 10:21:22;;;;;;;5.77;1.60;;;7.60;99.90;;;;;;5036991;28;21995;-70
2022/01/09 10:24:13;;;;;;;4.63;1.70;;;7.60;99.90;;;;;;5038669;28;20246;-71
2022/01/09 10:26:50;;;;;;;6.50;1.90;;;7.60;99.90;;;;;;5033166;28;20170;-71
2022/01/09 10:29:19;;;;;;;3.53;1.73;;;7.60;99.90;;;;;;5049397;28;20184;-70
2022/01/09 10:31:50;;;;;;;5.13;1.97;;;7.60;99.90;;;;;;5036592;28;20195;-70
2022/01/09 10:34:17;;;;;;;5.73;1.87;;;7.60;99.90;;;;;;5036774;28;20181;-70
2022/01/09 10:36:44;;;;;;;5.63;2.17;;;7.60;99.90;;;;;;5040485;28;20220;-70
2022/01/09 10:39:17;;;;;;;5.27;1.90;;;7.60;99.90;;;;;;5038408;28;20207;-69
2022/01/09 10:41:55;;;;;;;3.23;1.43;;;7.60;99.90;;;;;;5038005;28;20215;-70
2022/01/09 10:44:33;;;;;;;3.63;1.60;;;7.60;99.90;;;;;;5053500;28;20261;-70
2022/01/09 10:47:17;;;;;;;5.53;1.60;;;7.60;99.90;;;;;;5035727;28;20181;-72
2022/01/09 10:49:46;;;;;;;5.80;1.40;;;7.60;99.90;;;;;;5030747;28;20241;-70
2022/01/09 10:52:27;;;;;;;4.27;1.70;;;7.60;99.90;;;;;;5049279;28;20191;-70
2022/01/09 10:55:04;;;;;;;4.67;1.60;;;7.70;99.90;;;;;;5036618;28;20204;-71
2022/01/09 10:57:32;;;;;;;5.73;1.80;;;7.70;99.90;;;;;;5036728;28;20259;-70
2022/01/09 11:00:14;;;;;;;5.57;2.10;;;7.70;99.90;;;;;;5051173;28;20201;-70
2022/01/09 11:02:40;;;;;;;5.27;1.80;;;7.70;99.90;;;;;;5031936;28;20198;-70
2022/01/09 11:05:06;;;;;;;4.33;1.70;;;7.70;99.90;;;;;;5033528;28;20201;-70
2022/01/09 11:07:35;;;;;;;4.47;2.00;;;7.80;99.90;;;;;;5038889;28;20181;-71
2022/01/09 11:10:01;;;;;;;5.33;1.90;;;7.80;99.90;;;;;;5043422;28;20192;-70
2022/01/09 11:12:35;;;;;;;4.17;1.90;;;7.90;99.90;;;;;;5039151;28;20247;-70
2022/01/09 11:15:09;;;;;;;5.80;2.30;;;7.90;99.90;;;;;;5035290;28;20228;-70
2022/01/09 11:17:38;;;;;;;4.10;1.70;;;8.00;99.90;;;;;;5030152;28;20208;-71
2022/01/09 11:20:04;;;;;;;5.73;1.70;;;8.00;99.90;;;;;;5031336;28;20194;-70
2022/01/09 11:22:32;;;;;;;3.30;1.53;;;8.10;99.90;;;;;;5035904;28;20326;-70
2022/01/09 11:25:17;;;;;;;3.67;1.53;;;8.10;99.90;;;;;;5038180;28;20184;-69
2022/01/09 11:27:57;;;;;;;4.53;1.53;;;8.20;99.90;;;;;;5043312;28;20169;-70
2022/01/09 11:30:41;;;;;;;3.17;1.27;;;8.30;99.90;;;;;;5051885;28;20177;-69
2022/01/09 11:33:33;;;;;;;5.77;1.57;;;8.30;99.90;;;;;;5050131;28;20197;-69
2022/01/09 11:36:15;;;;;;;4.67;1.60;;;8.40;99.90;;;;;;5042884;28;20193;-70
2022/01/09 11:38:53;;;;;;;4.60;1.30;;;8.40;99.90;;;;;;5037263;28;20200;-70
2022/01/09 11:41:24;;;;;;;3.33;1.33;;;8.50;99.90;;;;;;5030039;28;20197;-70
2022/01/09 11:44:01;;;;;;;7.10;1.80;;;8.60;99.90;;;;;;5042134;28;20177;-70
2022/01/09 11:46:29;;;;;;;4.23;1.57;;;8.60;99.90;;;;;;5047559;28;20199;-69
2022/01/09 11:48:57;;;;;;;4.23;1.57;;;8.60;99.90;;;;;;5027155;28;20174;-70
2022/01/09 11:51:28;;;;;;;4.43;1.40;;;8.50;99.90;;;;;;5035451;28;20210;-70
2022/01/09 11:54:00;;;;;;;5.97;1.83;;;8.60;99.90;;;;;;5034420;28;20173;-70
2022/01/09 11:57:06;;;;;;;6.47;2.20;;;8.50;99.90;;;;;;5035350;28;20373;-70
2022/01/09 11:59:35;;;;;;;6.57;2.00;;;8.50;99.90;;;;;;5033518;28;20224;-69
2022/01/09 12:02:28;;;;;;;4.23;1.80;;;8.50;99.90;;;;;;5030314;28;20181;-67
2022/01/09 12:04:58;;;;;;;5.43;1.70;;;8.50;99.90;;;;;;5035631;28;20169;-68
2022/01/09 12:07:32;;;;;;;5.87;1.87;;;8.50;99.90;;;;;;5033505;28;20177;-69
2022/01/09 12:09:59;;;;;;;4.60;1.60;;;8.50;99.90;;;;;;5039194;28;20177;-68
2022/01/09 12:12:33;;;;;;;4.60;1.60;;;8.50;99.90;;;;;;5039107;28;20172;-69
2022/01/09 12:15:03;;;;;;;5.03;1.60;;;8.50;99.90;;;;;;5040531;28;20216;-68
2022/01/09 12:17:32;;;;;;;4.57;1.67;;;8.50;99.90;;;;;;5038099;28;20197;-68
2022/01/09 12:20:08;;;;;;;5.23;1.70;;;8.50;99.90;;;;;;5038345;28;20173;-69
2022/01/09 12:22:46;;;;;;;6.20;1.20;;;8.60;99.90;;;;;;5037348;28;20180;-67
2022/01/09 12:25:24;;;;;;;3.83;1.60;;;8.60;99.90;;;;;;5038141;28;20179;-70
2022/01/09 12:28:14;;;;;;;6.47;1.70;;;8.70;99.90;;;;;;5036487;28;20173;-69
2022/01/09 12:33:09;;;;;;;5.13;1.80;;;8.70;99.90;;;;;;5055756;28;20219;-67
2022/01/09 12:35:40;;;;;;;6.23;1.70;;;8.80;99.90;;;;;;5039217;28;20173;-66
2022/01/09 12:38:06;;;;;;;5.73;1.60;;;8.80;99.90;;;;;;5035218;28;20320;-69
2022/01/09 12:40:35;;;;;;;5.77;1.80;;;8.70;99.90;;;;;;5045585;28;20193;-68
2022/01/09 12:43:03;;;;;;;6.13;1.70;;;8.70;99.90;;;;;;5042184;28;20207;-69
2022/01/09 12:45:33;;;;;;;4.63;1.57;;;8.70;99.90;;;;;;5040066;28;20185;-68
2022/01/09 12:48:00;;;;;;;5.43;1.60;;;8.70;99.90;;;;;;5039328;28;20185;-69
2022/01/09 12:50:38;;;;;;;6.87;1.93;;;8.60;99.90;;;;;;5038489;28;20368;-69
2022/01/09 12:53:20;;;;;;;5.17;1.70;;;8.60;99.90;;;;;;5034528;28;20181;-68
2022/01/09 12:56:32;;;;;;;3.57;1.60;;;8.60;99.90;;;;;;5038998;28;20185;-70
2022/01/09 12:59:00;;;;;;;7.70;1.90;;;8.60;99.90;;;;;;5033632;28;20216;-66
2022/01/09 13:01:37;;;;;;;6.33;1.97;;;8.60;99.90;;;;;;5037435;28;20200;-69
2022/01/09 13:04:14;;;;;;;3.87;1.60;;;8.60;99.90;;;;;;5040303;28;20181;-67
2022/01/09 13:06:44;;;;;;;6.60;2.30;;;8.60;99.90;;;;;;5039029;28;20260;-67
2022/01/09 13:09:14;;;;;;;6.03;1.93;;;8.60;99.90;;;;;;5039179;28;20189;-68
2022/01/09 13:11:42;;;;;;;4.23;1.77;;;8.60;99.90;;;;;;5057230;28;20196;-71